sensor_id;sensor_type;location;lat;lon;timestamp;temperature;humidity
20459;DHT22;10388;52.314;7.938;2022-10-13T00:02:15;6.30;99.90
20459;DHT22;10388;52.314;7.938;2022-10-13T00:04:46;6.30;99.90
20459;DHT22;10388;52.314;7.938;2022-10-13T00:07:17;6.20;99.90
20459;DHT22;10388;52.314;7.938;2022-10-13T00:09:47;6.20;99.90
20459;DHT22;10388;52.314;7.938;2022-10-13T00:12:18;6.20;99.90
20459;DHT22;10388;52.314;7.938;2022-10-13T00:14:51;6.10;99.90
20459;DHT22;10388;52.314;7.938;2022-10-13T00:17:30;6.20;99.90
20459;DHT22;10388;52.314;7.938;2022-10-13T00:24:24;6.10;99.90
20459;DHT22;10388;52.314;7.938;2022-10-13T00:27:26;6.10;99.90
20459;DHT22;10388;52.314;7.938;2022-10-13T00:30:18;6.10;99.90
20459;DHT22;10388;52.314;7.938;2022-10-13T00:41:18;6.10;99.90
20459;DHT22;10388;52.314;7.938;2022-10-13T00:47:10;6.10;99.90
20459;DHT22;10388;52.314;7.938;2022-10-13T00:50:06;6.00;99.90
20459;DHT22;10388;52.314;7.938;2022-10-13T00:53:03;6.00;99.90
20459;DHT22;10388;52.314;7.938;2022-10-13T00:55:57;5.90;99.90
20459;DHT22;10388;52.314;7.938;2022-10-13T01:02:06;5.90;99.90
20459;DHT22;10388;52.314;7.938;2022-10-13T01:04:53;5.90;99.90
20459;DHT22;10388;52.314;7.938;2022-10-13T01:17:36;5.80;99.90
20459;DHT22;10388;52.314;7.938;2022-10-13T01:31:18;5.70;99.90
20459;DHT22;10388;52.314;7.938;2022-10-13T01:34:15;5.70;99.90
20459;DHT22;10388;52.314;7.938;2022-10-13T01:43:09;5.70;99.90
20459;DHT22;10388;52.314;7.938;2022-10-13T01:46:17;5.70;99.90
20459;DHT22;10388;52.314;7.938;2022-10-13T01:49:01;5.70;99.90
20459;DHT22;10388;52.314;7.938;2022-10-13T01:52:14;5.70;99.90
20459;DHT22;10388;52.314;7.938;2022-10-13T01:58:09;5.80;99.90
20459;DHT22;10388;52.314;7.938;2022-10-13T02:14:37;6.10;99.90
20459;DHT22;10388;52.314;7.938;2022-10-13T02:17:37;6.10;99.90
20459;DHT22;10388;52.314;7.938;2022-10-13T02:20:17;6.20;99.90
20459;DHT22;10388;52.314;7.938;2022-10-13T02:23:13;6.20;99.90
20459;DHT22;10388;52.314;7.938;2022-10-13T02:26:18;6.30;99.90
20459;DHT22;10388;52.314;7.938;2022-10-13T02:29:11;6.30;99.90
20459;DHT22;10388;52.314;7.938;2022-10-13T02:32:11;6.30;99.90
20459;DHT22;10388;52.314;7.938;2022-10-13T02:38:01;6.40;99.90
20459;DHT22;10388;52.314;7.938;2022-10-13T02:41:33;6.50;99.90
20459;DHT22;10388;52.314;7.938;2022-10-13T02:44:12;6.50;99.90
20459;DHT22;10388;52.314;7.938;2022-10-13T02:49:30;6.60;99.90
20459;DHT22;10388;52.314;7.938;2022-10-13T02:52:17;6.60;99.90
20459;DHT22;10388;52.314;7.938;2022-10-13T02:55:27;6.60;99.90
20459;DHT22;10388;52.314;7.938;2022-10-13T02:58:30;6.80;99.90
20459;DHT22;10388;52.314;7.938;2022-10-13T03:01:16;6.80;99.90
20459;DHT22;10388;52.314;7.938;2022-10-13T03:04:20;6.80;99.90
20459;DHT22;10388;52.314;7.938;2022-10-13T03:07:03;6.80;99.90
20459;DHT22;10388;52.314;7.938;2022-10-13T03:12:48;6.90;99.90
20459;DHT22;10388;52.314;7.938;2022-10-13T03:15:42;7.00;99.90
20459;DHT22;10388;52.314;7.938;2022-10-13T03:25:06;7.20;99.90
20459;DHT22;10388;52.314;7.938;2022-10-13T03:28:02;7.30;99.90
20459;DHT22;10388;52.314;7.938;2022-10-13T03:31:24;7.30;99.90
20459;DHT22;10388;52.314;7.938;2022-10-13T03:34:02;7.50;99.90
20459;DHT22;10388;52.314;7.938;2022-10-13T03:36:35;7.50;99.90
20459;DHT22;10388;52.314;7.938;2022-10-13T03:39:06;7.60;99.90
20459;DHT22;10388;52.314;7.938;2022-10-13T03:41:37;7.60;99.90
20459;DHT22;10388;52.314;7.938;2022-10-13T03:44:10;7.70;99.90
20459;DHT22;10388;52.314;7.938;2022-10-13T03:46:41;7.80;99.90
20459;DHT22;10388;52.314;7.938;2022-10-13T03:49:12;7.80;99.90
20459;DHT22;10388;52.314;7.938;2022-10-13T03:51:45;7.90;99.90
20459;DHT22;10388;52.314;7.938;2022-10-13T03:54:16;7.90;99.90
20459;DHT22;10388;52.314;7.938;2022-10-13T03:56:46;8.00;99.90
20459;DHT22;10388;52.314;7.938;2022-10-13T03:59:17;8.00;99.90
20459;DHT22;10388;52.314;7.938;2022-10-13T04:01:48;8.10;99.90
20459;DHT22;10388;52.314;7.938;2022-10-13T04:04:18;8.10;99.90
20459;DHT22;10388;52.314;7.938;2022-10-13T04:06:49;8.20;99.90
20459;DHT22;10388;52.314;7.938;2022-10-13T04:09:19;8.20;99.90
20459;DHT22;10388;52.314;7.938;2022-10-13T04:11:50;8.20;99.90
20459;DHT22;10388;52.314;7.938;2022-10-13T04:14:21;8.30;99.90
20459;DHT22;10388;52.314;7.938;2022-10-13T04:16:52;8.40;99.90
20459;DHT22;10388;52.314;7.938;2022-10-13T04:19:23;8.40;99.90
20459;DHT22;10388;52.314;7.938;2022-10-13T04:21:53;8.40;99.90
20459;DHT22;10388;52.314;7.938;2022-10-13T04:24:24;8.50;99.90
20459;DHT22;10388;52.314;7.938;2022-10-13T04:26:54;8.60;99.90
20459;DHT22;10388;52.314;7.938;2022-10-13T04:29:29;8.60;99.90
20459;DHT22;10388;52.314;7.938;2022-10-13T04:32:01;8.60;99.90
20459;DHT22;10388;52.314;7.938;2022-10-13T04:34:31;8.60;99.90
20459;DHT22;10388;52.314;7.938;2022-10-13T04:37:02;8.70;99.90
20459;DHT22;10388;52.314;7.938;2022-10-13T04:39:32;8.80;99.90
20459;DHT22;10388;52.314;7.938;2022-10-13T04:42:03;8.80;99.90
20459;DHT22;10388;52.314;7.938;2022-10-13T04:44:33;8.80;99.90
20459;DHT22;10388;52.314;7.938;2022-10-13T04:47:04;8.90;99.90
20459;DHT22;10388;52.314;7.938;2022-10-13T04:49:34;8.90;99.90
20459;DHT22;10388;52.314;7.938;2022-10-13T04:52:05;8.90;99.90
20459;DHT22;10388;52.314;7.938;2022-10-13T04:54:36;8.90;99.90
20459;DHT22;10388;52.314;7.938;2022-10-13T04:57:09;8.90;99.90
20459;DHT22;10388;52.314;7.938;2022-10-13T04:59:40;9.00;99.90
20459;DHT22;10388;52.314;7.938;2022-10-13T05:02:10;9.00;99.90
20459;DHT22;10388;52.314;7.938;2022-10-13T05:04:41;9.10;99.90
20459;DHT22;10388;52.314;7.938;2022-10-13T05:07:12;9.10;99.90
20459;DHT22;10388;52.314;7.938;2022-10-13T05:09:42;9.10;99.90
20459;DHT22;10388;52.314;7.938;2022-10-13T05:12:13;9.10;99.90
20459;DHT22;10388;52.314;7.938;2022-10-13T05:14:51;9.20;99.90
20459;DHT22;10388;52.314;7.938;2022-10-13T05:17:21;9.20;99.90
20459;DHT22;10388;52.314;7.938;2022-10-13T05:19:58;9.30;99.90
20459;DHT22;10388;52.314;7.938;2022-10-13T05:22:28;9.30;99.90
20459;DHT22;10388;52.314;7.938;2022-10-13T05:24:59;9.30;99.90
20459;DHT22;10388;52.314;7.938;2022-10-13T05:27:29;9.30;99.90
20459;DHT22;10388;52.314;7.938;2022-10-13T05:30:00;9.40;99.90
20459;DHT22;10388;52.314;7.938;2022-10-13T05:32:31;9.40;99.90
20459;DHT22;10388;52.314;7.938;2022-10-13T05:35:04;9.40;99.90
20459;DHT22;10388;52.314;7.938;2022-10-13T05:37:34;9.40;99.90
20459;DHT22;10388;52.314;7.938;2022-10-13T05:40:05;9.40;99.90
20459;DHT22;10388;52.314;7.938;2022-10-13T05:42:36;9.40;99.90
20459;DHT22;10388;52.314;7.938;2022-10-13T05:45:09;9.40;99.90
20459;DHT22;10388;52.314;7.938;2022-10-13T05:47:40;9.50;99.90
20459;DHT22;10388;52.314;7.938;2022-10-13T05:50:10;9.50;99.90
20459;DHT22;10388;52.314;7.938;2022-10-13T05:52:41;9.50;99.90
20459;DHT22;10388;52.314;7.938;2022-10-13T05:55:14;9.50;99.90
20459;DHT22;10388;52.314;7.938;2022-10-13T05:57:49;9.50;99.90
20459;DHT22;10388;52.314;7.938;2022-10-13T06:00:20;9.50;99.90
20459;DHT22;10388;52.314;7.938;2022-10-13T06:05:27;9.60;99.90
20459;DHT22;10388;52.314;7.938;2022-10-13T06:07:58;9.60;99.90
20459;DHT22;10388;52.314;7.938;2022-10-13T06:10:29;9.60;99.90
20459;DHT22;10388;52.314;7.938;2022-10-13T06:13:07;9.60;99.90
20459;DHT22;10388;52.314;7.938;2022-10-13T06:18:23;9.70;99.90
20459;DHT22;10388;52.314;7.938;2022-10-13T06:20:54;9.70;99.90
20459;DHT22;10388;52.314;7.938;2022-10-13T06:23:24;9.70;99.90
20459;DHT22;10388;52.314;7.938;2022-10-13T06:25:55;9.80;99.90
20459;DHT22;10388;52.314;7.938;2022-10-13T06:28:26;9.80;99.90
20459;DHT22;10388;52.314;7.938;2022-10-13T06:30:56;9.80;99.90
20459;DHT22;10388;52.314;7.938;2022-10-13T06:33:27;9.80;99.90
20459;DHT22;10388;52.314;7.938;2022-10-13T06:36:05;9.90;99.90
20459;DHT22;10388;52.314;7.938;2022-10-13T06:38:35;9.90;99.90
20459;DHT22;10388;52.314;7.938;2022-10-13T06:41:06;10.00;99.90
20459;DHT22;10388;52.314;7.938;2022-10-13T06:43:36;10.00;99.90
20459;DHT22;10388;52.314;7.938;2022-10-13T06:46:08;10.00;99.90
20459;DHT22;10388;52.314;7.938;2022-10-13T06:48:38;10.10;99.90
20459;DHT22;10388;52.314;7.938;2022-10-13T06:51:10;10.10;99.90
20459;DHT22;10388;52.314;7.938;2022-10-13T06:53:41;10.20;99.90
20459;DHT22;10388;52.314;7.938;2022-10-13T06:56:11;10.20;99.90
20459;DHT22;10388;52.314;7.938;2022-10-13T06:58:42;10.20;99.90
20459;DHT22;10388;52.314;7.938;2022-10-13T07:01:13;10.30;99.90
20459;DHT22;10388;52.314;7.938;2022-10-13T07:03:47;10.30;99.90
20459;DHT22;10388;52.314;7.938;2022-10-13T07:06:18;10.40;99.90
20459;DHT22;10388;52.314;7.938;2022-10-13T07:08:49;10.40;99.90
20459;DHT22;10388;52.314;7.938;2022-10-13T07:11:19;10.50;99.90
20459;DHT22;10388;52.314;7.938;2022-10-13T07:13:52;10.60;99.90
20459;DHT22;10388;52.314;7.938;2022-10-13T07:16:23;10.60;99.90
20459;DHT22;10388;52.314;7.938;2022-10-13T07:18:53;10.70;99.90
20459;DHT22;10388;52.314;7.938;2022-10-13T07:21:25;10.70;99.90
20459;DHT22;10388;52.314;7.938;2022-10-13T07:23:55;10.70;99.90
20459;DHT22;10388;52.314;7.938;2022-10-13T07:26:26;10.70;99.90
20459;DHT22;10388;52.314;7.938;2022-10-13T07:28:56;10.70;99.90
20459;DHT22;10388;52.314;7.938;2022-10-13T07:31:27;10.80;99.90
20459;DHT22;10388;52.314;7.938;2022-10-13T07:33:58;10.80;99.90
20459;DHT22;10388;52.314;7.938;2022-10-13T07:36:30;10.80;99.90
20459;DHT22;10388;52.314;7.938;2022-10-13T07:39:02;10.90;99.90
20459;DHT22;10388;52.314;7.938;2022-10-13T07:41:33;10.90;99.90
20459;DHT22;10388;52.314;7.938;2022-10-13T07:44:04;11.00;99.90
20459;DHT22;10388;52.314;7.938;2022-10-13T07:46:34;11.10;99.90
20459;DHT22;10388;52.314;7.938;2022-10-13T07:49:05;11.20;99.90
20459;DHT22;10388;52.314;7.938;2022-10-13T07:51:35;11.30;99.90
20459;DHT22;10388;52.314;7.938;2022-10-13T07:54:06;11.40;99.90
20459;DHT22;10388;52.314;7.938;2022-10-13T07:56:36;11.40;99.90
20459;DHT22;10388;52.314;7.938;2022-10-13T07:59:07;11.50;99.90
20459;DHT22;10388;52.314;7.938;2022-10-13T08:01:38;11.70;99.90
20459;DHT22;10388;52.314;7.938;2022-10-13T08:04:10;11.80;99.90
20459;DHT22;10388;52.314;7.938;2022-10-13T08:06:40;11.90;99.90
20459;DHT22;10388;52.314;7.938;2022-10-13T08:09:11;12.00;99.90
20459;DHT22;10388;52.314;7.938;2022-10-13T08:11:42;12.00;99.90
20459;DHT22;10388;52.314;7.938;2022-10-13T08:14:13;12.10;99.90
20459;DHT22;10388;52.314;7.938;2022-10-13T08:16:43;12.10;99.90
20459;DHT22;10388;52.314;7.938;2022-10-13T08:19:16;12.10;99.90
20459;DHT22;10388;52.314;7.938;2022-10-13T08:21:47;12.20;99.90
20459;DHT22;10388;52.314;7.938;2022-10-13T08:24:18;12.30;99.90
20459;DHT22;10388;52.314;7.938;2022-10-13T08:26:49;12.30;99.90
20459;DHT22;10388;52.314;7.938;2022-10-13T08:29:20;12.20;99.90
20459;DHT22;10388;52.314;7.938;2022-10-13T08:31:51;12.20;99.90
20459;DHT22;10388;52.314;7.938;2022-10-13T08:34:23;12.20;99.90
20459;DHT22;10388;52.314;7.938;2022-10-13T08:36:53;12.20;99.90
20459;DHT22;10388;52.314;7.938;2022-10-13T08:39:25;12.30;99.90
20459;DHT22;10388;52.314;7.938;2022-10-13T08:41:56;12.30;99.90
20459;DHT22;10388;52.314;7.938;2022-10-13T08:44:41;12.30;99.90
20459;DHT22;10388;52.314;7.938;2022-10-13T08:48:01;12.40;99.90
20459;DHT22;10388;52.314;7.938;2022-10-13T08:50:35;12.40;99.90
20459;DHT22;10388;52.314;7.938;2022-10-13T08:56:18;12.50;99.90
20459;DHT22;10388;52.314;7.938;2022-10-13T08:58:51;12.50;99.90
20459;DHT22;10388;52.314;7.938;2022-10-13T09:01:28;12.50;99.90
20459;DHT22;10388;52.314;7.938;2022-10-13T09:07:19;12.60;99.90
20459;DHT22;10388;52.314;7.938;2022-10-13T09:09:50;12.60;99.90
20459;DHT22;10388;52.314;7.938;2022-10-13T09:12:21;12.60;99.90
20459;DHT22;10388;52.314;7.938;2022-10-13T09:15:04;12.70;99.90
20459;DHT22;10388;52.314;7.938;2022-10-13T09:17:37;12.70;99.90
20459;DHT22;10388;52.314;7.938;2022-10-13T09:23:19;12.80;99.90
20459;DHT22;10388;52.314;7.938;2022-10-13T09:25:51;12.80;99.90
20459;DHT22;10388;52.314;7.938;2022-10-13T09:28:27;12.80;99.90
20459;DHT22;10388;52.314;7.938;2022-10-13T09:31:04;12.90;99.90
20459;DHT22;10388;52.314;7.938;2022-10-13T09:33:36;13.00;99.90
20459;DHT22;10388;52.314;7.938;2022-10-13T09:36:14;13.00;99.90
20459;DHT22;10388;52.314;7.938;2022-10-13T09:39:12;13.10;99.90
20459;DHT22;10388;52.314;7.938;2022-10-13T09:41:43;13.20;99.90
20459;DHT22;10388;52.314;7.938;2022-10-13T09:44:28;13.20;99.90
20459;DHT22;10388;52.314;7.938;2022-10-13T09:47:01;13.30;99.90
20459;DHT22;10388;52.314;7.938;2022-10-13T09:49:40;13.40;99.90
20459;DHT22;10388;52.314;7.938;2022-10-13T09:54:51;13.40;99.90
20459;DHT22;10388;52.314;7.938;2022-10-13T09:57:38;13.40;99.90
20459;DHT22;10388;52.314;7.938;2022-10-13T10:00:24;13.50;99.90
20459;DHT22;10388;52.314;7.938;2022-10-13T10:03:25;13.50;99.90
20459;DHT22;10388;52.314;7.938;2022-10-13T10:06:05;13.40;99.90
20459;DHT22;10388;52.314;7.938;2022-10-13T10:08:44;13.40;99.90
20459;DHT22;10388;52.314;7.938;2022-10-13T10:11:37;13.40;99.90
20459;DHT22;10388;52.314;7.938;2022-10-13T10:14:30;13.50;99.90
20459;DHT22;10388;52.314;7.938;2022-10-13T10:17:16;13.50;99.90
20459;DHT22;10388;52.314;7.938;2022-10-13T10:20:44;13.60;99.90
20459;DHT22;10388;52.314;7.938;2022-10-13T10:22:58;13.70;99.90
20459;DHT22;10388;52.314;7.938;2022-10-13T10:25:46;13.70;99.90
20459;DHT22;10388;52.314;7.938;2022-10-13T10:36:18;13.60;99.90
20459;DHT22;10388;52.314;7.938;2022-10-13T10:38:57;13.60;99.90
20459;DHT22;10388;52.314;7.938;2022-10-13T10:41:44;13.60;99.90
20459;DHT22;10388;52.314;7.938;2022-10-13T10:44:36;13.60;99.90
20459;DHT22;10388;52.314;7.938;2022-10-13T10:47:20;13.50;99.90
20459;DHT22;10388;52.314;7.938;2022-10-13T10:49:59;13.60;99.90
20459;DHT22;10388;52.314;7.938;2022-10-13T11:01:33;13.80;99.90
20459;DHT22;10388;52.314;7.938;2022-10-13T11:06:55;13.90;99.90
20459;DHT22;10388;52.314;7.938;2022-10-13T11:15:08;13.90;99.90
20459;DHT22;10388;52.314;7.938;2022-10-13T11:17:40;13.90;99.90
20459;DHT22;10388;52.314;7.938;2022-10-13T11:31:25;14.00;99.90
20459;DHT22;10388;52.314;7.938;2022-10-13T11:33:59;14.20;99.90
20459;DHT22;10388;52.314;7.938;2022-10-13T11:50:49;14.30;99.90
20459;DHT22;10388;52.314;7.938;2022-10-13T11:53:38;14.50;99.90
20459;DHT22;10388;52.314;7.938;2022-10-13T11:56:19;14.60;99.90
20459;DHT22;10388;52.314;7.938;2022-10-13T11:58:50;14.70;99.90
20459;DHT22;10388;52.314;7.938;2022-10-13T12:01:20;14.80;99.90
20459;DHT22;10388;52.314;7.938;2022-10-13T12:03:51;14.80;99.90
20459;DHT22;10388;52.314;7.938;2022-10-13T12:08:52;14.70;99.90
20459;DHT22;10388;52.314;7.938;2022-10-13T12:11:35;14.80;99.90
20459;DHT22;10388;52.314;7.938;2022-10-13T12:14:28;14.80;99.90
20459;DHT22;10388;52.314;7.938;2022-10-13T12:17:00;14.80;99.90
20459;DHT22;10388;52.314;7.938;2022-10-13T12:19:31;14.80;99.90
20459;DHT22;10388;52.314;7.938;2022-10-13T12:22:02;14.90;99.90
20459;DHT22;10388;52.314;7.938;2022-10-13T12:24:32;14.90;99.90
20459;DHT22;10388;52.314;7.938;2022-10-13T12:27:29;15.10;99.90
20459;DHT22;10388;52.314;7.938;2022-10-13T12:30:18;15.30;99.90
20459;DHT22;10388;52.314;7.938;2022-10-13T12:32:51;15.50;99.90
20459;DHT22;10388;52.314;7.938;2022-10-13T12:35:24;15.60;99.90
20459;DHT22;10388;52.314;7.938;2022-10-13T12:38:00;15.60;99.90
20459;DHT22;10388;52.314;7.938;2022-10-13T12:40:32;15.70;99.90
20459;DHT22;10388;52.314;7.938;2022-10-13T12:43:03;15.60;99.90
20459;DHT22;10388;52.314;7.938;2022-10-13T12:45:35;15.60;99.90
20459;DHT22;10388;52.314;7.938;2022-10-13T12:48:05;15.60;99.90
20459;DHT22;10388;52.314;7.938;2022-10-13T12:50:36;15.60;99.90
20459;DHT22;10388;52.314;7.938;2022-10-13T12:55:51;15.70;99.90
20459;DHT22;10388;52.314;7.938;2022-10-13T12:58:26;15.80;99.90
20459;DHT22;10388;52.314;7.938;2022-10-13T13:04:14;16.00;99.90
20459;DHT22;10388;52.314;7.938;2022-10-13T13:07:02;16.00;99.90
20459;DHT22;10388;52.314;7.938;2022-10-13T13:09:34;16.00;99.90
20459;DHT22;10388;52.314;7.938;2022-10-13T13:14:49;15.90;99.90
20459;DHT22;10388;52.314;7.938;2022-10-13T13:17:28;15.80;99.90
20459;DHT22;10388;52.314;7.938;2022-10-13T13:19:59;15.70;99.90
20459;DHT22;10388;52.314;7.938;2022-10-13T13:22:29;15.60;99.90
20459;DHT22;10388;52.314;7.938;2022-10-13T13:25:00;15.60;99.90
20459;DHT22;10388;52.314;7.938;2022-10-13T13:27:39;15.50;99.90
20459;DHT22;10388;52.314;7.938;2022-10-13T13:30:16;15.50;99.90
20459;DHT22;10388;52.314;7.938;2022-10-13T13:32:47;15.50;99.90
20459;DHT22;10388;52.314;7.938;2022-10-13T13:35:18;15.40;99.90
20459;DHT22;10388;52.314;7.938;2022-10-13T13:37:50;15.40;99.90
20459;DHT22;10388;52.314;7.938;2022-10-13T13:40:24;15.40;99.90
20459;DHT22;10388;52.314;7.938;2022-10-13T13:42:55;15.30;99.90
20459;DHT22;10388;52.314;7.938;2022-10-13T13:45:25;15.30;99.90
20459;DHT22;10388;52.314;7.938;2022-10-13T13:47:56;15.30;99.90
20459;DHT22;10388;52.314;7.938;2022-10-13T13:50:32;15.30;99.90
20459;DHT22;10388;52.314;7.938;2022-10-13T13:53:04;15.30;99.90
20459;DHT22;10388;52.314;7.938;2022-10-13T13:55:34;15.30;99.90
20459;DHT22;10388;52.314;7.938;2022-10-13T13:58:05;15.30;99.90
20459;DHT22;10388;52.314;7.938;2022-10-13T14:00:36;15.30;99.90
20459;DHT22;10388;52.314;7.938;2022-10-13T14:03:06;15.30;99.90
20459;DHT22;10388;52.314;7.938;2022-10-13T14:05:38;15.30;99.90
20459;DHT22;10388;52.314;7.938;2022-10-13T14:08:10;15.30;99.90
20459;DHT22;10388;52.314;7.938;2022-10-13T14:10:40;15.20;99.90
20459;DHT22;10388;52.314;7.938;2022-10-13T14:13:11;15.20;99.90
20459;DHT22;10388;52.314;7.938;2022-10-13T14:15:41;15.20;99.90
20459;DHT22;10388;52.314;7.938;2022-10-13T14:18:12;15.20;99.90
20459;DHT22;10388;52.314;7.938;2022-10-13T14:20:42;15.20;99.90
20459;DHT22;10388;52.314;7.938;2022-10-13T14:23:13;15.20;99.90
20459;DHT22;10388;52.314;7.938;2022-10-13T14:25:46;15.20;99.90
20459;DHT22;10388;52.314;7.938;2022-10-13T14:28:17;15.10;99.90
20459;DHT22;10388;52.314;7.938;2022-10-13T14:30:47;15.10;99.90
20459;DHT22;10388;52.314;7.938;2022-10-13T14:33:18;15.10;99.90
20459;DHT22;10388;52.314;7.938;2022-10-13T14:35:49;15.10;99.90
20459;DHT22;10388;52.314;7.938;2022-10-13T14:38:19;15.00;99.90
20459;DHT22;10388;52.314;7.938;2022-10-13T14:40:57;14.90;99.90
20459;DHT22;10388;52.314;7.938;2022-10-13T14:43:31;14.90;99.90
20459;DHT22;10388;52.314;7.938;2022-10-13T14:46:03;14.80;99.90
20459;DHT22;10388;52.314;7.938;2022-10-13T14:48:35;14.80;99.90
20459;DHT22;10388;52.314;7.938;2022-10-13T14:51:08;14.70;99.90
20459;DHT22;10388;52.314;7.938;2022-10-13T14:53:41;14.60;99.90
20459;DHT22;10388;52.314;7.938;2022-10-13T14:56:21;14.60;99.90
20459;DHT22;10388;52.314;7.938;2022-10-13T14:58:54;14.60;99.90
20459;DHT22;10388;52.314;7.938;2022-10-13T15:01:26;14.50;99.90
20459;DHT22;10388;52.314;7.938;2022-10-13T15:03:56;14.50;99.90
20459;DHT22;10388;52.314;7.938;2022-10-13T15:06:27;14.40;99.90
20459;DHT22;10388;52.314;7.938;2022-10-13T15:08:58;14.40;99.90
20459;DHT22;10388;52.314;7.938;2022-10-13T15:11:29;14.40;99.90
20459;DHT22;10388;52.314;7.938;2022-10-13T15:14:00;14.40;99.90
20459;DHT22;10388;52.314;7.938;2022-10-13T15:16:31;14.40;99.90
20459;DHT22;10388;52.314;7.938;2022-10-13T15:19:06;14.40;99.90
20459;DHT22;10388;52.314;7.938;2022-10-13T15:21:36;14.30;99.90
20459;DHT22;10388;52.314;7.938;2022-10-13T15:24:09;14.30;99.90
20459;DHT22;10388;52.314;7.938;2022-10-13T15:26:40;14.20;99.90
20459;DHT22;10388;52.314;7.938;2022-10-13T15:29:11;14.20;99.90
20459;DHT22;10388;52.314;7.938;2022-10-13T15:31:41;14.20;99.90
20459;DHT22;10388;52.314;7.938;2022-10-13T15:34:12;14.10;99.90
20459;DHT22;10388;52.314;7.938;2022-10-13T15:36:42;14.10;99.90
20459;DHT22;10388;52.314;7.938;2022-10-13T15:39:13;14.10;99.90
20459;DHT22;10388;52.314;7.938;2022-10-13T15:41:43;14.00;99.90
20459;DHT22;10388;52.314;7.938;2022-10-13T15:44:14;14.00;99.90
20459;DHT22;10388;52.314;7.938;2022-10-13T15:46:46;14.00;99.90
20459;DHT22;10388;52.314;7.938;2022-10-13T15:49:16;13.90;99.90
20459;DHT22;10388;52.314;7.938;2022-10-13T15:51:47;13.90;99.90
20459;DHT22;10388;52.314;7.938;2022-10-13T15:54:19;13.90;99.90
20459;DHT22;10388;52.314;7.938;2022-10-13T15:56:50;13.80;99.90
20459;DHT22;10388;52.314;7.938;2022-10-13T15:59:21;13.80;99.90
20459;DHT22;10388;52.314;7.938;2022-10-13T16:01:51;13.80;99.90
20459;DHT22;10388;52.314;7.938;2022-10-13T16:04:22;13.80;99.90
20459;DHT22;10388;52.314;7.938;2022-10-13T16:06:52;13.70;99.90
20459;DHT22;10388;52.314;7.938;2022-10-13T16:09:23;13.70;99.90
20459;DHT22;10388;52.314;7.938;2022-10-13T16:11:53;13.60;99.90
20459;DHT22;10388;52.314;7.938;2022-10-13T16:16:57;13.60;99.90
20459;DHT22;10388;52.314;7.938;2022-10-13T16:19:27;13.60;99.90
20459;DHT22;10388;52.314;7.938;2022-10-13T16:21:58;13.50;99.90
20459;DHT22;10388;52.314;7.938;2022-10-13T16:24:28;13.50;99.90
20459;DHT22;10388;52.314;7.938;2022-10-13T16:26:59;13.50;99.90
20459;DHT22;10388;52.314;7.938;2022-10-13T16:29:30;13.50;99.90
20459;DHT22;10388;52.314;7.938;2022-10-13T16:32:01;13.40;99.90
20459;DHT22;10388;52.314;7.938;2022-10-13T16:34:31;13.40;99.90
20459;DHT22;10388;52.314;7.938;2022-10-13T16:37:02;13.40;99.90
20459;DHT22;10388;52.314;7.938;2022-10-13T16:39:32;13.40;99.90
20459;DHT22;10388;52.314;7.938;2022-10-13T16:42:03;13.40;99.90
20459;DHT22;10388;52.314;7.938;2022-10-13T16:44:34;13.30;99.90
20459;DHT22;10388;52.314;7.938;2022-10-13T16:47:04;13.30;99.90
20459;DHT22;10388;52.314;7.938;2022-10-13T16:49:35;13.30;99.90
20459;DHT22;10388;52.314;7.938;2022-10-13T16:52:06;13.30;99.90
20459;DHT22;10388;52.314;7.938;2022-10-13T16:54:37;13.30;99.90
20459;DHT22;10388;52.314;7.938;2022-10-13T16:57:07;13.20;99.90
20459;DHT22;10388;52.314;7.938;2022-10-13T16:59:38;13.20;99.90
20459;DHT22;10388;52.314;7.938;2022-10-13T17:02:14;13.20;99.90
20459;DHT22;10388;52.314;7.938;2022-10-13T17:04:45;13.10;99.90
20459;DHT22;10388;52.314;7.938;2022-10-13T17:07:16;13.10;99.90
20459;DHT22;10388;52.314;7.938;2022-10-13T17:09:46;13.10;99.90
20459;DHT22;10388;52.314;7.938;2022-10-13T17:12:17;13.10;99.90
20459;DHT22;10388;52.314;7.938;2022-10-13T17:14:48;13.00;99.90
20459;DHT22;10388;52.314;7.938;2022-10-13T17:17:18;13.00;99.90
20459;DHT22;10388;52.314;7.938;2022-10-13T17:19:49;13.00;99.90
20459;DHT22;10388;52.314;7.938;2022-10-13T17:22:20;12.90;99.90
20459;DHT22;10388;52.314;7.938;2022-10-13T17:24:50;13.00;99.90
20459;DHT22;10388;52.314;7.938;2022-10-13T17:27:21;12.90;99.90
20459;DHT22;10388;52.314;7.938;2022-10-13T17:29:52;12.90;99.90
20459;DHT22;10388;52.314;7.938;2022-10-13T17:32:24;12.90;99.90
20459;DHT22;10388;52.314;7.938;2022-10-13T17:34:54;12.90;99.90
20459;DHT22;10388;52.314;7.938;2022-10-13T17:37:26;12.90;99.90
20459;DHT22;10388;52.314;7.938;2022-10-13T17:39:57;12.90;99.90
20459;DHT22;10388;52.314;7.938;2022-10-13T17:42:27;12.90;99.90
20459;DHT22;10388;52.314;7.938;2022-10-13T17:44:58;12.80;99.90
20459;DHT22;10388;52.314;7.938;2022-10-13T17:47:29;12.80;99.90
20459;DHT22;10388;52.314;7.938;2022-10-13T17:50:00;12.80;99.90
20459;DHT22;10388;52.314;7.938;2022-10-13T17:52:31;12.80;99.90
20459;DHT22;10388;52.314;7.938;2022-10-13T17:55:01;12.80;99.90
20459;DHT22;10388;52.314;7.938;2022-10-13T17:57:32;12.80;99.90
20459;DHT22;10388;52.314;7.938;2022-10-13T18:00:06;12.80;99.90
20459;DHT22;10388;52.314;7.938;2022-10-13T18:02:37;12.80;99.90
20459;DHT22;10388;52.314;7.938;2022-10-13T18:05:07;12.80;99.90
20459;DHT22;10388;52.314;7.938;2022-10-13T18:07:38;12.80;99.90
20459;DHT22;10388;52.314;7.938;2022-10-13T18:10:09;12.80;99.90
20459;DHT22;10388;52.314;7.938;2022-10-13T18:12:40;12.80;99.90
20459;DHT22;10388;52.314;7.938;2022-10-13T18:15:11;12.80;99.90
20459;DHT22;10388;52.314;7.938;2022-10-13T18:17:41;12.80;99.90
20459;DHT22;10388;52.314;7.938;2022-10-13T18:20:12;12.80;99.90
20459;DHT22;10388;52.314;7.938;2022-10-13T18:22:43;12.80;99.90
20459;DHT22;10388;52.314;7.938;2022-10-13T18:25:13;12.70;99.90
20459;DHT22;10388;52.314;7.938;2022-10-13T18:27:44;12.70;99.90
20459;DHT22;10388;52.314;7.938;2022-10-13T18:30:15;12.70;99.90
20459;DHT22;10388;52.314;7.938;2022-10-13T18:32:45;12.70;99.90
20459;DHT22;10388;52.314;7.938;2022-10-13T18:35:16;12.70;99.90
20459;DHT22;10388;52.314;7.938;2022-10-13T18:37:50;12.70;99.90
20459;DHT22;10388;52.314;7.938;2022-10-13T18:40:21;12.70;99.90
20459;DHT22;10388;52.314;7.938;2022-10-13T18:42:52;12.70;99.90
20459;DHT22;10388;52.314;7.938;2022-10-13T18:45:22;12.70;99.90
20459;DHT22;10388;52.314;7.938;2022-10-13T18:47:53;12.70;99.90
20459;DHT22;10388;52.314;7.938;2022-10-13T18:50:24;12.70;99.90
20459;DHT22;10388;52.314;7.938;2022-10-13T18:52:54;12.70;99.90
20459;DHT22;10388;52.314;7.938;2022-10-13T18:55:25;12.70;99.90
20459;DHT22;10388;52.314;7.938;2022-10-13T18:57:55;12.70;99.90
20459;DHT22;10388;52.314;7.938;2022-10-13T19:00:26;12.70;99.90
20459;DHT22;10388;52.314;7.938;2022-10-13T19:02:56;12.70;99.90
20459;DHT22;10388;52.314;7.938;2022-10-13T19:05:27;12.70;99.90